Mr Connor — WDF2688 — position and weather

sailwx.info

Track history (hours):
 
Tides and Currents Weather Stations Pressure Air Temp Water Temp Dewpoint Dewpoint Depression Visibility Wind Speed Wind Dir Waves Ship Positions

Mr Connor

Owner: Marquette Transportation Company Offshore LLC, Jefferson, LA. More information available from US FCC via Universal Licensing System and Coast Guard Vessel Documentation Center.

Last reported at 2018-Jun-20 06:28 UTC. Time now 2018-Jun-21 00:57 UTC.
Position N 32°45' W 079°52'.

Length 20 m; draft 3 m.

Type: Tug. MMSI: 367430750.

Date/timePositionNaut miles runAvg speedWind from/ knotsBaromVisibWave heightAir tempDewpointWater temp
2018-Jun-20 06:28N 32°45' W 079°52'2 0.5
2018-Jun-20 03:27N 32°45' W 079°54'0 0.0
2018-Jun-20 03:00N 32°45' W 079°54'0 0.0
2018-Jun-19 23:57N 32°45' W 079°54'3 5.7
2018-Jun-19 23:30N 32°48' W 079°55'1 1.4
2018-Jun-19 22:27N 32°49' W 079°56'2 5.4
2018-Jun-19 22:00N 32°47' W 079°55'1 0.5
2018-Jun-19 19:08N 32°45' W 079°54'0 0.0
2018-Jun-19 18:08N 32°45' W 079°54'0 0.0
2018-Jun-19 17:56N 32°45' W 079°54'0 0.0
2018-Jun-19 17:29N 32°45' W 079°54'0 0.0
2018-Jun-19 16:47N 32°45' W 079°54'0 0.1
2018-Jun-19 16:30N 32°45' W 079°54'2 3.5
2018-Jun-19 15:58N 32°47' W 079°55'3 3.1
2018-Jun-19 15:01N 32°50' W 079°56'0 0.7
2018-Jun-19 15:00N 32°50' W 079°56'0 0.1
2018-Jun-19 14:26N 32°50' W 079°57'1 1.6
2018-Jun-19 13:58N 32°49' W 079°56'2 4.6
2018-Jun-19 13:31N 32°47' W 079°55'2 3.9
2018-Jun-19 12:58N 32°45' W 079°54'0 0.2
2018-Jun-19 11:53N 32°45' W 079°54'0 0.1
2018-Jun-19 09:02N 32°45' W 079°54'0 0.0
2018-Jun-19 09:00N 32°45' W 079°54'0 0.0
2018-Jun-19 08:19N 32°45' W 079°54'0 0.0
2018-Jun-19 08:00N 32°45' W 079°54'0 0.0
2018-Jun-19 07:28N 32°45' W 079°54'0 0.0
2018-Jun-19 06:52N 32°45' W 079°54'0 0.0
2018-Jun-19 06:29N 32°45' W 079°54'0 0.0
2018-Jun-19 05:59N 32°45' W 079°54'0 0.0
2018-Jun-19 05:30N 32°45' W 079°54'0 0.0
2018-Jun-19 05:00N 32°45' W 079°54'0 0.0
2018-Jun-19 04:27N 32°45' W 079°54'0 0.0
2018-Jun-19 04:00N 32°45' W 079°54'0 0.0
2018-Jun-19 03:28N 32°45' W 079°54'0 0.0
2018-Jun-19 02:53N 32°45' W 079°54'0 0.0
2018-Jun-19 02:26N 32°45' W 079°54'0 0.0
2018-Jun-19 01:55N 32°45' W 079°54'0 0.0
2018-Jun-19 01:30N 32°45' W 079°54'0 0.0
2018-Jun-19 01:00N 32°45' W 079°54'0 0.7
2018-Jun-19 00:25N 32°46' W 079°54'1 0.2
2018-Jun-18 18:47N 32°45' W 079°52'2 5.8
2018-Jun-18 18:30N 32°45' W 079°54'0 0.0
2018-Jun-18 18:00N 32°45' W 079°54'0 0.1
2018-Jun-18 17:25N 32°45' W 079°54'0 0.0
2018-Jun-18 16:58N 32°45' W 079°54'0 0.1
2018-Jun-18 16:30N 32°45' W 079°54'0 0.0
2018-Jun-18 15:59N 32°45' W 079°54'0 0.0
2018-Jun-18 15:31N 32°45' W 079°54'0 0.0
2018-Jun-18 15:00N 32°45' W 079°54'0 0.0
2018-Jun-18 14:30N 32°45' W 079°54'0 0.0
2018-Jun-18 14:00N 32°45' W 079°54'0 0.4
2018-Jun-18 13:30N 32°46' W 079°54'4 3.2
2018-Jun-18 12:09N 32°50' W 079°56'1 6.1
2018-Jun-18 12:00N 32°49' W 079°56'3 5.6
2018-Jun-18 11:30N 32°46' W 079°55'1 1.5
2018-Jun-18 10:52N 32°45' W 079°54'0 0.0
2018-Jun-18 10:29N 32°45' W 079°54'0 0.0
2018-Jun-18 10:00N 32°45' W 079°54'0 0.0
2018-Jun-18 09:30N 32°45' W 079°54'0 0.0
2018-Jun-18 09:00N 32°45' W 079°54'0 0.0
2018-Jun-18 08:30N 32°45' W 079°54'0 0.0
2018-Jun-18 08:00N 32°45' W 079°54'0 0.0
2018-Jun-18 07:29N 32°45' W 079°54'0 0.0
2018-Jun-18 06:59N 32°45' W 079°54'0 0.0
2018-Jun-18 06:27N 32°45' W 079°54'0 0.0
2018-Jun-18 05:38N 32°45' W 079°54'0 0.0
2018-Jun-18 05:30N 32°45' W 079°54'0 0.0
2018-Jun-18 04:59N 32°45' W 079°54'2 3.2
2018-Jun-18 04:29N 32°47' W 079°55'3 0.7
2018-Jun-18 00:27N 32°50' W 079°56'3 7.6
2018-Jun-18 00:00N 32°47' W 079°54'3 4.9
2018-Jun-17 23:27N 32°45' W 079°52'4 7.6
2018-Jun-17 22:59N 32°47' W 079°55'3 4.7
2018-Jun-17 22:20N 32°50' W 079°56'2 4.0
2018-Jun-17 21:51N 32°48' W 079°55'2 4.5
2018-Jun-17 21:30N 32°47' W 079°55'2 3.3
2018-Jun-17 20:58N 32°45' W 079°54'1 2.1
2018-Jun-17 20:30N 32°46' W 079°53'1 0.1
2018-Jun-17 08:44N 32°45' W 079°52'1 5.4
2018-Jun-17 08:29N 32°46' W 079°54'1 0.1
2018-Jun-16 23:23N 32°45' W 079°54'0 0.0
2018-Jun-16 22:56N 32°45' W 079°54'0 0.0
2018-Jun-16 22:23N 32°45' W 079°54'1 2.9
2018-Jun-16 22:00N 32°46' W 079°55'4 5.5
2018-Jun-16 21:18N 32°50' W 079°56'1 2.3
2018-Jun-16 21:00N 32°50' W 079°56'3 5.1
2018-Jun-16 20:30N 32°47' W 079°55'2 0.7
2018-Jun-16 17:53N 32°45' W 079°54'0 0.7
2018-Jun-16 17:27N 32°45' W 079°54'0 0.2
2018-Jun-16 16:55N 32°45' W 079°54'0 0.0
2018-Jun-16 15:57N 32°45' W 079°54'0 0.0
2018-Jun-16 15:25N 32°45' W 079°54'0 0.0
2018-Jun-16 14:55N 32°45' W 079°54'0 0.5
2018-Jun-16 14:29N 32°45' W 079°54'0 0.0
2018-Jun-16 13:56N 32°45' W 079°54'0 0.0
2018-Jun-16 13:23N 32°45' W 079°54'0 0.0
2018-Jun-16 12:56N 32°45' W 079°54'0 0.0
2018-Jun-16 12:29N 32°45' W 079°54'0 0.0
2018-Jun-16 12:00N 32°45' W 079°54'0 0.4
2018-Jun-16 11:30N 32°45' W 079°54'0 0.2
2018-Jun-16 10:55N 32°45' W 079°54'0 0.1
2018-Jun-16 10:30N 32°45' W 079°54'0 0.0
2018-Jun-16 04:06N 32°45' W 079°54'0 0.1
2018-Jun-16 04:00N 32°45' W 079°54'0 0.0
2018-Jun-16 03:31N 32°45' W 079°54'0 0.0
2018-Jun-16 02:52N 32°45' W 079°54'0 0.0
2018-Jun-16 02:24N 32°45' W 079°54'0 0.6
2018-Jun-16 02:00N 32°45' W 079°55'3 5.9
2018-Jun-16 01:29N 32°48' W 079°56'2 3.3
2018-Jun-16 00:56N 32°50' W 079°57'0 0.0
2018-Jun-16 00:02N 32°50' W 079°57'0 0.1
2018-Jun-15 23:00N 32°50' W 079°56'4 8.1
2018-Jun-15 22:30N 32°46' W 079°55'1 1.3
2018-Jun-15 21:59N 32°45' W 079°54'0 0.0
2018-Jun-15 14:53N 32°45' W 079°54'0 0.0
2018-Jun-15 13:32N 32°45' W 079°54'0 0.0
2018-Jun-15 13:29N 32°45' W 079°54'0 0.0
2018-Jun-15 12:20N 32°45' W 079°54'0 0.4
2018-Jun-15 11:46N 32°45' W 079°54'0 0.9
2018-Jun-15 11:29N 32°45' W 079°54'0 0.0
2018-Jun-15 10:59N 32°45' W 079°54'0 0.0
2018-Jun-15 10:29N 32°45' W 079°54'0 0.0
2018-Jun-15 10:00N 32°45' W 079°54'0 0.0
2018-Jun-15 09:30N 32°45' W 079°54'0 0.0
2018-Jun-15 09:00N 32°45' W 079°54'0 0.0
2018-Jun-15 08:30N 32°45' W 079°54'0 0.0
2018-Jun-15 07:57N 32°45' W 079°54'0 0.0
2018-Jun-15 07:30N 32°45' W 079°54'0 0.1
2018-Jun-15 06:36N 32°45' W 079°54'0 0.0
2018-Jun-15 04:56N 32°45' W 079°54'0 0.0
2018-Jun-15 04:28N 32°45' W 079°54'0 0.0
2018-Jun-15 04:00N 32°45' W 079°54'0 0.0
2018-Jun-15 03:30N 32°45' W 079°54'0 0.0
2018-Jun-15 03:00N 32°45' W 079°54'0 0.0
2018-Jun-15 02:30N 32°45' W 079°54'0 0.0
2018-Jun-15 02:00N 32°45' W 079°54'0 0.0
2018-Jun-15 01:30N 32°45' W 079°54'0 0.0
2018-Jun-15 01:00N 32°45' W 079°54'0 0.0
2018-Jun-15 00:30N 32°45' W 079°54'0 0.0
2018-Jun-14 23:57N 32°45' W 079°54'2 3.2
2018-Jun-14 23:29N 32°47' W 079°55'3 1.2
2018-Jun-14 20:49N 32°50' W 079°56'2 4.6
2018-Jun-14 20:25N 32°49' W 079°55'2 5.1
2018-Jun-14 20:00N 32°47' W 079°54'2 0.2
2018-Jun-14 12:15N 32°45' W 079°52'1 3.3
2018-Jun-14 12:00N 32°45' W 079°53'1 1.3
2018-Jun-14 11:19N 32°45' W 079°54'0 0.0
2018-Jun-14 10:58N 32°45' W 079°54'0 0.0
2018-Jun-14 10:16N 32°45' W 079°54'0 0.0
2018-Jun-14 09:07N 32°45' W 079°54'0 0.0
2018-Jun-14 09:01N 32°45' W 079°54'0 0.0
2018-Jun-14 08:30N 32°45' W 079°54'0 0.0
2018-Jun-14 08:01N 32°45' W 079°54'0 0.0
2018-Jun-14 04:05N 32°45' W 079°54'0 0.0
2018-Jun-14 02:29N 32°45' W 079°54'0 0.3
2018-Jun-14 02:00N 32°46' W 079°54'0 0.1
2018-Jun-14 00:32N 32°45' W 079°55'0 0.2
2018-Jun-14 00:30N 32°45' W 079°55'0 0.1
2018-Jun-14 00:00N 32°45' W 079°55'0 0.0
2018-Jun-13 23:24N 32°45' W 079°55'1 2.1
2018-Jun-13 22:44N 32°46' W 079°53'1 3.5
2018-Jun-13 22:29N 32°47' W 079°54'2 3.8
2018-Jun-13 21:59N 32°48' W 079°56'2 0.6
2018-Jun-13 19:02N 32°50' W 079°56'0 5.7
2018-Jun-13 18:58N 32°49' W 079°56'2 5.3
2018-Jun-13 18:31N 32°47' W 079°55'2 1.2
2018-Jun-13 16:58N 32°45' W 079°54'3 6.4
2018-Jun-13 16:30N 32°48' W 079°56'2 0.3
2018-Jun-13 10:59N 32°50' W 079°56'2 4.8
2018-Jun-13 10:30N 32°48' W 079°55'3 4.2
2018-Jun-13 09:54N 32°45' W 079°55'0 0.0
2018-Jun-13 06:26N 32°45' W 079°55'0 0.0
2018-Jun-13 02:13N 32°46' W 079°54'0 1.0
2018-Jun-13 01:55N 32°45' W 079°54'0 0.8
2018-Jun-13 01:28N 32°45' W 079°54'0 0.1
2018-Jun-13 00:35N 32°45' W 079°54'0 0.7
2018-Jun-13 00:27N 32°45' W 079°55'0 0.2
2018-Jun-12 23:50N 32°45' W 079°54'0 0.0
2018-Jun-12 21:36N 32°45' W 079°54'0 1.0
2018-Jun-12 21:30N 32°45' W 079°55'0 0.1
2018-Jun-12 19:53N 32°45' W 079°54'0 0.1
2018-Jun-12 19:26N 32°45' W 079°55'0 0.0
2018-Jun-12 18:43N 32°45' W 079°55'0 0.3
2018-Jun-12 17:28N 32°45' W 079°54'0 0.2
2018-Jun-12 17:00N 32°45' W 079°54'0 0.1
2018-Jun-12 16:28N 32°45' W 079°54'0 0.9
2018-Jun-12 15:54N 32°45' W 079°55'0 0.0
2018-Jun-12 15:06N 32°45' W 079°55'0 0.0
2018-Jun-12 15:00N 32°45' W 079°55'0 0.0
2018-Jun-12 14:30N 32°45' W 079°55'0 0.0
2018-Jun-12 13:48N 32°45' W 079°55'0 0.0
2018-Jun-12 13:19N 32°45' W 079°55'0 0.0
2018-Jun-12 04:31N 32°45' W 079°55'0 0.2
2018-Jun-12 04:28N 32°45' W 079°55'0 0.0
2018-Jun-12 02:46N 32°45' W 079°55'0 0.0
2018-Jun-11 21:13N 32°45' W 079°55'0 0.0
2018-Jun-11 20:52N 32°45' W 079°55'0 0.0
2018-Jun-11 18:34N 32°45' W 079°55'0 0.1
2018-Jun-11 16:37N 32°45' W 079°54'0 0.0
2018-Jun-11 16:28N 32°45' W 079°54'0 0.0
2018-Jun-11 15:58N 32°45' W 079°54'0 0.0
2018-Jun-11 15:28N 32°45' W 079°54'0 0.2
2018-Jun-11 14:56N 32°45' W 079°54'0 0.3
2018-Jun-11 14:30N 32°45' W 079°54'0 0.0
2018-Jun-11 13:09N 32°45' W 079°54'0 0.0
2018-Jun-11 12:51N 32°45' W 079°54'0 0.0
2018-Jun-11 12:24N 32°45' W 079°54'0 0.3
2018-Jun-11 11:55N 32°45' W 079°54'0 0.5
2018-Jun-11 11:30N 32°45' W 079°54'1 0.8
2018-Jun-11 09:42N 32°45' W 079°53'2 6.9
2018-Jun-11 09:29N 32°45' W 079°54'0 0.0
2018-Jun-11 08:56N 32°45' W 079°54'0 0.0
2018-Jun-11 08:29N 32°45' W 079°54'0 0.0
2018-Jun-11 07:59N 32°45' W 079°54'0 0.0
2018-Jun-11 03:32N 32°45' W 079°54'0 0.0
2018-Jun-11 03:08N 32°45' W 079°54'0 0.0
2018-Jun-11 01:23N 32°45' W 079°54'0 0.0
2018-Jun-11 00:53N 32°45' W 079°54'0 0.0
2018-Jun-11 00:14N 32°45' W 079°54'0 0.0
2018-Jun-10 23:59N 32°45' W 079°54'0 0.0
2018-Jun-10 23:29N 32°45' W 079°54'0 0.0
2018-Jun-10 22:56N 32°45' W 079°54'0 0.0
2018-Jun-10 22:29N 32°45' W 079°54'0 0.3
2018-Jun-10 21:46N 32°45' W 079°54'0 0.0
2018-Jun-10 21:25N 32°45' W 079°54'0 0.0
2018-Jun-10 20:55N 32°45' W 079°54'0 0.2
2018-Jun-10 20:31N 32°45' W 079°54'1 2.7
2018-Jun-10 20:00N 32°47' W 079°55'2 4.5
2018-Jun-10 19:30N 32°49' W 079°56'1 1.9
2018-Jun-10 18:46N 32°50' W 079°57'1 1.8
2018-Jun-10 18:19N 32°49' W 079°56'1 4.6
2018-Jun-10 18:00N 32°48' W 079°55'3 6.5
2018-Jun-10 17:31N 32°46' W 079°52'0 0.1
2018-Jun-10 12:12N 32°45' W 079°53'1 0.6
2018-Jun-10 10:19N 32°45' W 079°54'0 0.0
2018-Jun-10 09:52N 32°45' W 079°54'0 0.0
2018-Jun-10 09:28N 32°45' W 079°54'0 0.0
2018-Jun-10 08:58N 32°45' W 079°54'0 0.0
2018-Jun-10 07:50N 32°45' W 079°54'0 0.3
2018-Jun-10 07:11N 32°45' W 079°54'0 0.0
2018-Jun-10 06:59N 32°45' W 079°54'0 0.0
2018-Jun-10 06:29N 32°45' W 079°54'  
Track history (hours):
 
Tides and Currents Weather Stations Pressure Air Temp Water Temp Dewpoint Dewpoint Depression Visibility Wind Speed Wind Dir Waves Ship Positions

Mr Connor

Owner: Marquette Transportation Company Offshore LLC, Jefferson, LA. More information available from US FCC via Universal Licensing System and Coast Guard Vessel Documentation Center.

Last reported at 2018-Jun-20 06:28 UTC. Time now 2018-Jun-21 00:57 UTC.
Position N 32°45' W 079°52'.

Length 20 m; draft 3 m.

Type: Tug. MMSI: 367430750.

Date/timePositionNaut miles runAvg speedWind from/ knotsBaromVisibWave heightAir tempDewpointWater temp
2018-Jun-20 06:28N 32°45' W 079°52'2 0.5
2018-Jun-20 03:27N 32°45' W 079°54'0 0.0
2018-Jun-20 03:00N 32°45' W 079°54'0 0.0
2018-Jun-19 23:57N 32°45' W 079°54'3 5.7
2018-Jun-19 23:30N 32°48' W 079°55'1 1.4
2018-Jun-19 22:27N 32°49' W 079°56'2 5.4
2018-Jun-19 22:00N 32°47' W 079°55'1 0.5
2018-Jun-19 19:08N 32°45' W 079°54'0 0.0
2018-Jun-19 18:08N 32°45' W 079°54'0 0.0
2018-Jun-19 17:56N 32°45' W 079°54'0 0.0
2018-Jun-19 17:29N 32°45' W 079°54'0 0.0
2018-Jun-19 16:47N 32°45' W 079°54'0 0.1
2018-Jun-19 16:30N 32°45' W 079°54'2 3.5
2018-Jun-19 15:58N 32°47' W 079°55'3 3.1
2018-Jun-19 15:01N 32°50' W 079°56'0 0.7
2018-Jun-19 15:00N 32°50' W 079°56'0 0.1
2018-Jun-19 14:26N 32°50' W 079°57'1 1.6
2018-Jun-19 13:58N 32°49' W 079°56'2 4.6
2018-Jun-19 13:31N 32°47' W 079°55'2 3.9
2018-Jun-19 12:58N 32°45' W 079°54'0 0.2
2018-Jun-19 11:53N 32°45' W 079°54'0 0.1
2018-Jun-19 09:02N 32°45' W 079°54'0 0.0
2018-Jun-19 09:00N 32°45' W 079°54'0 0.0
2018-Jun-19 08:19N 32°45' W 079°54'0 0.0
2018-Jun-19 08:00N 32°45' W 079°54'0 0.0
2018-Jun-19 07:28N 32°45' W 079°54'0 0.0
2018-Jun-19 06:52N 32°45' W 079°54'0 0.0
2018-Jun-19 06:29N 32°45' W 079°54'0 0.0
2018-Jun-19 05:59N 32°45' W 079°54'0 0.0
2018-Jun-19 05:30N 32°45' W 079°54'0 0.0
2018-Jun-19 05:00N 32°45' W 079°54'0 0.0
2018-Jun-19 04:27N 32°45' W 079°54'0 0.0
2018-Jun-19 04:00N 32°45' W 079°54'0 0.0
2018-Jun-19 03:28N 32°45' W 079°54'0 0.0
2018-Jun-19 02:53N 32°45' W 079°54'0 0.0
2018-Jun-19 02:26N 32°45' W 079°54'0 0.0
2018-Jun-19 01:55N 32°45' W 079°54'0 0.0
2018-Jun-19 01:30N 32°45' W 079°54'0 0.0
2018-Jun-19 01:00N 32°45' W 079°54'0 0.7
2018-Jun-19 00:25N 32°46' W 079°54'1 0.2
2018-Jun-18 18:47N 32°45' W 079°52'2 5.8
2018-Jun-18 18:30N 32°45' W 079°54'0 0.0
2018-Jun-18 18:00N 32°45' W 079°54'0 0.1
2018-Jun-18 17:25N 32°45' W 079°54'0 0.0
2018-Jun-18 16:58N 32°45' W 079°54'0 0.1
2018-Jun-18 16:30N 32°45' W 079°54'0 0.0
2018-Jun-18 15:59N 32°45' W 079°54'0 0.0
2018-Jun-18 15:31N 32°45' W 079°54'0 0.0
2018-Jun-18 15:00N 32°45' W 079°54'0 0.0
2018-Jun-18 14:30N 32°45' W 079°54'0 0.0
2018-Jun-18 14:00N 32°45' W 079°54'0 0.4
2018-Jun-18 13:30N 32°46' W 079°54'4 3.2
2018-Jun-18 12:09N 32°50' W 079°56'1 6.1
2018-Jun-18 12:00N 32°49' W 079°56'3 5.6
2018-Jun-18 11:30N 32°46' W 079°55'1 1.5
2018-Jun-18 10:52N 32°45' W 079°54'0 0.0
2018-Jun-18 10:29N 32°45' W 079°54'0 0.0
2018-Jun-18 10:00N 32°45' W 079°54'0 0.0
2018-Jun-18 09:30N 32°45' W 079°54'0 0.0
2018-Jun-18 09:00N 32°45' W 079°54'0 0.0
2018-Jun-18 08:30N 32°45' W 079°54'0 0.0
2018-Jun-18 08:00N 32°45' W 079°54'0 0.0
2018-Jun-18 07:29N 32°45' W 079°54'0 0.0
2018-Jun-18 06:59N 32°45' W 079°54'0 0.0
2018-Jun-18 06:27N 32°45' W 079°54'0 0.0
2018-Jun-18 05:38N 32°45' W 079°54'0 0.0
2018-Jun-18 05:30N 32°45' W 079°54'0 0.0
2018-Jun-18 04:59N 32°45' W 079°54'2 3.2
2018-Jun-18 04:29N 32°47' W 079°55'3 0.7
2018-Jun-18 00:27N 32°50' W 079°56'3 7.6
2018-Jun-18 00:00N 32°47' W 079°54'3 4.9
2018-Jun-17 23:27N 32°45' W 079°52'4 7.6
2018-Jun-17 22:59N 32°47' W 079°55'3 4.7
2018-Jun-17 22:20N 32°50' W 079°56'2 4.0
2018-Jun-17 21:51N 32°48' W 079°55'2 4.5
2018-Jun-17 21:30N 32°47' W 079°55'2 3.3
2018-Jun-17 20:58N 32°45' W 079°54'1 2.1
2018-Jun-17 20:30N 32°46' W 079°53'1 0.1
2018-Jun-17 08:44N 32°45' W 079°52'1 5.4
2018-Jun-17 08:29N 32°46' W 079°54'1 0.1
2018-Jun-16 23:23N 32°45' W 079°54'0 0.0
2018-Jun-16 22:56N 32°45' W 079°54'0 0.0
2018-Jun-16 22:23N 32°45' W 079°54'1 2.9
2018-Jun-16 22:00N 32°46' W 079°55'4 5.5
2018-Jun-16 21:18N 32°50' W 079°56'1 2.3
2018-Jun-16 21:00N 32°50' W 079°56'3 5.1
2018-Jun-16 20:30N 32°47' W 079°55'2 0.7
2018-Jun-16 17:53N 32°45' W 079°54'0 0.7
2018-Jun-16 17:27N 32°45' W 079°54'0 0.2
2018-Jun-16 16:55N 32°45' W 079°54'0 0.0
2018-Jun-16 15:57N 32°45' W 079°54'0 0.0
2018-Jun-16 15:25N 32°45' W 079°54'0 0.0
2018-Jun-16 14:55N 32°45' W 079°54'0 0.5
2018-Jun-16 14:29N 32°45' W 079°54'0 0.0
2018-Jun-16 13:56N 32°45' W 079°54'0 0.0
2018-Jun-16 13:23N 32°45' W 079°54'0 0.0
2018-Jun-16 12:56N 32°45' W 079°54'0 0.0
2018-Jun-16 12:29N 32°45' W 079°54'0 0.0
2018-Jun-16 12:00N 32°45' W 079°54'0 0.4
2018-Jun-16 11:30N 32°45' W 079°54'0 0.2
2018-Jun-16 10:55N 32°45' W 079°54'0 0.1
2018-Jun-16 10:30N 32°45' W 079°54'0 0.0
2018-Jun-16 04:06N 32°45' W 079°54'0 0.1
2018-Jun-16 04:00N 32°45' W 079°54'0 0.0
2018-Jun-16 03:31N 32°45' W 079°54'0 0.0
2018-Jun-16 02:52N 32°45' W 079°54'0 0.0
2018-Jun-16 02:24N 32°45' W 079°54'0 0.6
2018-Jun-16 02:00N 32°45' W 079°55'3 5.9
2018-Jun-16 01:29N 32°48' W 079°56'2 3.3
2018-Jun-16 00:56N 32°50' W 079°57'0 0.0
2018-Jun-16 00:02N 32°50' W 079°57'0 0.1
2018-Jun-15 23:00N 32°50' W 079°56'4 8.1
2018-Jun-15 22:30N 32°46' W 079°55'1 1.3
2018-Jun-15 21:59N 32°45' W 079°54'0 0.0
2018-Jun-15 14:53N 32°45' W 079°54'0 0.0
2018-Jun-15 13:32N 32°45' W 079°54'0 0.0
2018-Jun-15 13:29N 32°45' W 079°54'0 0.0
2018-Jun-15 12:20N 32°45' W 079°54'0 0.4
2018-Jun-15 11:46N 32°45' W 079°54'0 0.9
2018-Jun-15 11:29N 32°45' W 079°54'0 0.0
2018-Jun-15 10:59N 32°45' W 079°54'0 0.0
2018-Jun-15 10:29N 32°45' W 079°54'0 0.0
2018-Jun-15 10:00N 32°45' W 079°54'0 0.0
2018-Jun-15 09:30N 32°45' W 079°54'0 0.0
2018-Jun-15 09:00N 32°45' W 079°54'0 0.0
2018-Jun-15 08:30N 32°45' W 079°54'0 0.0
2018-Jun-15 07:57N 32°45' W 079°54'0 0.0
2018-Jun-15 07:30N 32°45' W 079°54'0 0.1
2018-Jun-15 06:36N 32°45' W 079°54'0 0.0
2018-Jun-15 04:56N 32°45' W 079°54'0 0.0
2018-Jun-15 04:28N 32°45' W 079°54'0 0.0
2018-Jun-15 04:00N 32°45' W 079°54'0 0.0
2018-Jun-15 03:30N 32°45' W 079°54'0 0.0
2018-Jun-15 03:00N 32°45' W 079°54'0 0.0
2018-Jun-15 02:30N 32°45' W 079°54'0 0.0
2018-Jun-15 02:00N 32°45' W 079°54'0 0.0
2018-Jun-15 01:30N 32°45' W 079°54'0 0.0
2018-Jun-15 01:00N 32°45' W 079°54'0 0.0
2018-Jun-15 00:30N 32°45' W 079°54'0 0.0
2018-Jun-14 23:57N 32°45' W 079°54'2 3.2
2018-Jun-14 23:29N 32°47' W 079°55'3 1.2
2018-Jun-14 20:49N 32°50' W 079°56'2 4.6
2018-Jun-14 20:25N 32°49' W 079°55'2 5.1
2018-Jun-14 20:00N 32°47' W 079°54'2 0.2
2018-Jun-14 12:15N 32°45' W 079°52'1 3.3
2018-Jun-14 12:00N 32°45' W 079°53'1 1.3
2018-Jun-14 11:19N 32°45' W 079°54'0 0.0
2018-Jun-14 10:58N 32°45' W 079°54'0 0.0
2018-Jun-14 10:16N 32°45' W 079°54'0 0.0
2018-Jun-14 09:07N 32°45' W 079°54'0 0.0
2018-Jun-14 09:01N 32°45' W 079°54'0 0.0
2018-Jun-14 08:30N 32°45' W 079°54'0 0.0
2018-Jun-14 08:01N 32°45' W 079°54'0 0.0
2018-Jun-14 04:05N 32°45' W 079°54'0 0.0
2018-Jun-14 02:29N 32°45' W 079°54'0 0.3
2018-Jun-14 02:00N 32°46' W 079°54'0 0.1
2018-Jun-14 00:32N 32°45' W 079°55'0 0.2
2018-Jun-14 00:30N 32°45' W 079°55'0 0.1
2018-Jun-14 00:00N 32°45' W 079°55'0 0.0
2018-Jun-13 23:24N 32°45' W 079°55'1 2.1
2018-Jun-13 22:44N 32°46' W 079°53'1 3.5
2018-Jun-13 22:29N 32°47' W 079°54'2 3.8
2018-Jun-13 21:59N 32°48' W 079°56'2 0.6
2018-Jun-13 19:02N 32°50' W 079°56'0 5.7
2018-Jun-13 18:58N 32°49' W 079°56'2 5.3
2018-Jun-13 18:31N 32°47' W 079°55'2 1.2
2018-Jun-13 16:58N 32°45' W 079°54'3 6.4
2018-Jun-13 16:30N 32°48' W 079°56'2 0.3
2018-Jun-13 10:59N 32°50' W 079°56'2 4.8
2018-Jun-13 10:30N 32°48' W 079°55'3 4.2
2018-Jun-13 09:54N 32°45' W 079°55'0 0.0
2018-Jun-13 06:26N 32°45' W 079°55'0 0.0
2018-Jun-13 02:13N 32°46' W 079°54'0 1.0
2018-Jun-13 01:55N 32°45' W 079°54'0 0.8
2018-Jun-13 01:28N 32°45' W 079°54'0 0.1
2018-Jun-13 00:35N 32°45' W 079°54'0 0.7
2018-Jun-13 00:27N 32°45' W 079°55'0 0.2
2018-Jun-12 23:50N 32°45' W 079°54'0 0.0
2018-Jun-12 21:36N 32°45' W 079°54'0 1.0
2018-Jun-12 21:30N 32°45' W 079°55'0 0.1
2018-Jun-12 19:53N 32°45' W 079°54'0 0.1
2018-Jun-12 19:26N 32°45' W 079°55'0 0.0
2018-Jun-12 18:43N 32°45' W 079°55'0 0.3
2018-Jun-12 17:28N 32°45' W 079°54'0 0.2
2018-Jun-12 17:00N 32°45' W 079°54'0 0.1
2018-Jun-12 16:28N 32°45' W 079°54'0 0.9
2018-Jun-12 15:54N 32°45' W 079°55'0 0.0
2018-Jun-12 15:06N 32°45' W 079°55'0 0.0
2018-Jun-12 15:00N 32°45' W 079°55'0 0.0
2018-Jun-12 14:30N 32°45' W 079°55'0 0.0
2018-Jun-12 13:48N 32°45' W 079°55'0 0.0
2018-Jun-12 13:19N 32°45' W 079°55'0 0.0
2018-Jun-12 04:31N 32°45' W 079°55'0 0.2
2018-Jun-12 04:28N 32°45' W 079°55'0 0.0
2018-Jun-12 02:46N 32°45' W 079°55'0 0.0
2018-Jun-11 21:13N 32°45' W 079°55'0 0.0
2018-Jun-11 20:52N 32°45' W 079°55'0 0.0
2018-Jun-11 18:34N 32°45' W 079°55'0 0.1
2018-Jun-11 16:37N 32°45' W 079°54'0 0.0
2018-Jun-11 16:28N 32°45' W 079°54'0 0.0
2018-Jun-11 15:58N 32°45' W 079°54'0 0.0
2018-Jun-11 15:28N 32°45' W 079°54'0 0.2
2018-Jun-11 14:56N 32°45' W 079°54'0 0.3
2018-Jun-11 14:30N 32°45' W 079°54'0 0.0
2018-Jun-11 13:09N 32°45' W 079°54'0 0.0
2018-Jun-11 12:51N 32°45' W 079°54'0 0.0
2018-Jun-11 12:24N 32°45' W 079°54'0 0.3
2018-Jun-11 11:55N 32°45' W 079°54'0 0.5
2018-Jun-11 11:30N 32°45' W 079°54'1 0.8
2018-Jun-11 09:42N 32°45' W 079°53'2 6.9
2018-Jun-11 09:29N 32°45' W 079°54'0 0.0
2018-Jun-11 08:56N 32°45' W 079°54'0 0.0
2018-Jun-11 08:29N 32°45' W 079°54'0 0.0
2018-Jun-11 07:59N 32°45' W 079°54'0 0.0
2018-Jun-11 03:32N 32°45' W 079°54'0 0.0
2018-Jun-11 03:08N 32°45' W 079°54'0 0.0
2018-Jun-11 01:23N 32°45' W 079°54'0 0.0
2018-Jun-11 00:53N 32°45' W 079°54'0 0.0
2018-Jun-11 00:14N 32°45' W 079°54'0 0.0
2018-Jun-10 23:59N 32°45' W 079°54'0 0.0
2018-Jun-10 23:29N 32°45' W 079°54'0 0.0
2018-Jun-10 22:56N 32°45' W 079°54'0 0.0
2018-Jun-10 22:29N 32°45' W 079°54'0 0.3
2018-Jun-10 21:46N 32°45' W 079°54'0 0.0
2018-Jun-10 21:25N 32°45' W 079°54'0 0.0
2018-Jun-10 20:55N 32°45' W 079°54'0 0.2
2018-Jun-10 20:31N 32°45' W 079°54'1 2.7
2018-Jun-10 20:00N 32°47' W 079°55'2 4.5
2018-Jun-10 19:30N 32°49' W 079°56'1 1.9
2018-Jun-10 18:46N 32°50' W 079°57'1 1.8
2018-Jun-10 18:19N 32°49' W 079°56'1 4.6
2018-Jun-10 18:00N 32°48' W 079°55'3 6.5
2018-Jun-10 17:31N 32°46' W 079°52'0 0.1
2018-Jun-10 12:12N 32°45' W 079°53'1 0.6
2018-Jun-10 10:19N 32°45' W 079°54'0 0.0
2018-Jun-10 09:52N 32°45' W 079°54'0 0.0
2018-Jun-10 09:28N 32°45' W 079°54'0 0.0
2018-Jun-10 08:58N 32°45' W 079°54'0 0.0
2018-Jun-10 07:50N 32°45' W 079°54'0 0.3
2018-Jun-10 07:11N 32°45' W 079°54'0 0.0
2018-Jun-10 06:59N 32°45' W 079°54'0 0.0
2018-Jun-10 06:29N 32°45' W 079°54'  

Dump ship's entire track history